createdAt,value
2023-01-09T00:01:43.821Z,97799.33
2023-01-09T00:05:34.846Z,97806.89
2023-01-09T00:09:23.842Z,97796.71
2023-01-09T00:13:14.361Z,97792.22
2023-01-09T00:17:02.882Z,97780.91
2023-01-09T00:20:50.893Z,97790.92
2023-01-09T00:24:38.892Z,97788.78
2023-01-09T00:31:42.828Z,97784.88
2023-01-09T00:35:35.839Z,97772.73
2023-01-09T00:39:23.897Z,97780.27
2023-01-09T00:46:28.858Z,97780.33
2023-01-09T00:50:20.904Z,97788.48
2023-01-09T00:54:09.875Z,97781.77
2023-01-09T00:57:57.894Z,97776.88
2023-01-09T01:01:47.026Z,97778.52
2023-01-09T01:05:50.920Z,97778.88
2023-01-09T01:09:38.862Z,97757.35
2023-01-09T01:13:26.905Z,97756.55
2023-01-09T01:17:14.890Z,97761.61
2023-01-09T01:21:05.915Z,97759.16
2023-01-09T01:24:53.918Z,97757.94
2023-01-09T01:32:05.890Z,97749.03
2023-01-09T01:35:53.894Z,97740.13
2023-01-09T01:39:41.912Z,97731.43
2023-01-09T01:43:31.907Z,97726.58
2023-01-09T01:47:19.905Z,97732.45
2023-01-09T01:51:11.949Z,97727.71
2023-01-09T01:54:59.958Z,97736.23
2023-01-09T01:58:48.919Z,97733.67
2023-01-09T02:02:38.056Z,97710.93
2023-01-09T02:06:27.923Z,97714.70
2023-01-09T02:10:16.936Z,97724.41
2023-01-09T02:14:04.943Z,97707.35
2023-01-09T02:18:14.944Z,97714.97
2023-01-09T02:22:08.991Z,97711.36
2023-01-09T02:26:30.948Z,97698.61
2023-01-09T02:30:42.955Z,97704.37
2023-01-09T02:34:36.993Z,97701.75
2023-01-09T02:38:31.962Z,97704.11
2023-01-09T02:42:23.973Z,97712.02
2023-01-09T02:49:50.013Z,97704.19
2023-01-09T02:54:26.004Z,97701.86
2023-01-09T03:01:40.163Z,97699.93
2023-01-09T03:05:35.977Z,97715.25
2023-01-09T03:09:30.005Z,97725.39
2023-01-09T03:16:37.966Z,97721.47
2023-01-09T03:20:30.018Z,97722.93
2023-01-09T03:24:19.998Z,97708.34
2023-01-09T03:33:00.009Z,97704.42
2023-01-09T03:36:48.024Z,97696.05
2023-01-09T03:40:36.042Z,97687.03
2023-01-09T03:44:32.018Z,97688.12
2023-01-09T03:48:20.064Z,97680.02
2023-01-09T03:52:08.026Z,97680.11
2023-01-09T03:55:56.039Z,97664.23
2023-01-09T04:03:00.047Z,97665.10
2023-01-09T04:06:48.073Z,97653.33
2023-01-09T04:10:36.054Z,97645.12
2023-01-09T04:14:24.067Z,97653.78
2023-01-09T04:18:12.052Z,97633.42
2023-01-09T04:22:00.106Z,97630.73
2023-01-09T04:25:48.068Z,97643.63
2023-01-09T04:32:52.095Z,97625.34
2023-01-09T04:36:42.139Z,97619.79
2023-01-09T04:40:33.128Z,97609.92
2023-01-09T04:47:38.131Z,97614.83
2023-01-09T04:51:26.092Z,97601.83
2023-01-09T04:55:15.093Z,97601.37
2023-01-09T05:02:19.094Z,97597.14
2023-01-09T05:06:07.101Z,97598.48
2023-01-09T05:09:55.077Z,97580.84
2023-01-09T05:13:43.162Z,97580.55
2023-01-09T05:17:31.160Z,97583.69
2023-01-09T05:21:19.105Z,97586.78
2023-01-09T05:25:09.139Z,97587.97
2023-01-09T05:28:57.132Z,97583.77
2023-01-09T05:32:45.121Z,97576.44
2023-01-09T05:36:33.153Z,97583.95
2023-01-09T05:40:23.144Z,97591.50
2023-01-09T05:44:12.156Z,97585.30
2023-01-09T05:48:01.131Z,97581.55
2023-01-09T05:51:49.133Z,97575.32
2023-01-09T05:55:37.165Z,97578.42
2023-01-09T06:02:41.361Z,97570.88
2023-01-09T06:06:31.162Z,97574.28
2023-01-09T06:10:19.152Z,97565.30
2023-01-09T06:17:23.201Z,97556.64
2023-01-09T06:21:11.182Z,97559.77
2023-01-09T06:24:59.238Z,97561.09
2023-01-09T06:28:47.170Z,97560.47
2023-01-09T06:32:35.178Z,97553.93
2023-01-09T06:36:23.237Z,97554.39
2023-01-09T06:40:11.211Z,97553.13
2023-01-09T06:50:28.201Z,97544.82
2023-01-09T06:54:16.176Z,97549.25
2023-01-09T06:58:04.236Z,97541.61
2023-01-09T07:01:53.323Z,97542.02
2023-01-09T07:05:42.238Z,97542.00
2023-01-09T07:09:30.236Z,97540.70
2023-01-09T07:13:19.232Z,97547.02
2023-01-09T07:17:18.278Z,97541.14
2023-01-09T07:21:06.299Z,97545.85
2023-01-09T07:24:56.241Z,97545.16
2023-01-09T07:28:44.269Z,97556.52
2023-01-09T07:32:32.265Z,97556.58
2023-01-09T07:36:21.259Z,97546.76
2023-01-09T07:40:09.365Z,97552.51
2023-01-09T07:43:58.285Z,97545.00
2023-01-09T07:47:46.267Z,97551.76
2023-01-09T07:51:34.271Z,97555.36
2023-01-09T07:55:22.286Z,97560.78
2023-01-09T08:05:28.295Z,97552.56
2023-01-09T08:09:16.285Z,97547.80
2023-01-09T08:13:08.319Z,97542.23
2023-01-09T08:16:56.330Z,97532.05
2023-01-09T08:20:46.309Z,97543.17
2023-01-09T08:24:34.326Z,97543.16
2023-01-09T08:28:25.350Z,97536.88
2023-01-09T08:32:13.287Z,97541.29
2023-01-09T08:36:03.343Z,97536.97
2023-01-09T08:39:51.372Z,97528.77
2023-01-09T08:43:54.489Z,97532.85
2023-01-09T08:47:46.322Z,97531.51
2023-01-09T08:51:34.314Z,97527.39
2023-01-09T08:55:22.333Z,97530.27
2023-01-09T08:59:10.329Z,97532.80
2023-01-09T09:02:58.452Z,97523.36
2023-01-09T09:06:48.377Z,97525.66
2023-01-09T09:10:37.361Z,97525.14
2023-01-09T09:14:40.393Z,97515.70
2023-01-09T09:18:29.414Z,97520.79
2023-01-09T09:22:17.317Z,97528.98
2023-01-09T09:26:05.368Z,97527.99
2023-01-09T09:29:53.340Z,97521.69
2023-01-09T09:33:41.419Z,97514.48
2023-01-09T09:37:29.358Z,97497.28
2023-01-09T09:41:52.362Z,97501.49
2023-01-09T09:45:51.374Z,97494.83
2023-01-09T09:49:44.429Z,97483.92
2023-01-09T09:53:38.389Z,97493.51
2023-01-09T09:57:29.428Z,97493.89
2023-01-09T10:01:19.372Z,97494.90
2023-01-09T10:05:12.408Z,97497.27
2023-01-09T10:09:09.457Z,97497.36
2023-01-09T10:13:04.381Z,97496.45
2023-01-09T10:17:21.460Z,97488.49
2023-01-09T10:21:18.408Z,97485.92
2023-01-09T10:25:26.430Z,97473.66
2023-01-09T10:30:08.418Z,97464.38
2023-01-09T10:34:08.426Z,97460.70
2023-01-09T10:38:00.402Z,97452.95
2023-01-09T10:41:52.460Z,97448.34
2023-01-09T10:48:58.396Z,97431.55
2023-01-09T10:52:56.569Z,97439.14
2023-01-09T10:56:46.462Z,97430.78
2023-01-09T11:00:44.441Z,97421.64
2023-01-09T11:04:45.461Z,97428.41
2023-01-09T11:08:42.493Z,97431.89
2023-01-09T11:12:47.476Z,97421.80
2023-01-09T11:16:43.525Z,97419.98
2023-01-09T11:20:38.487Z,97430.16
2023-01-09T11:24:48.502Z,97416.72
2023-01-09T11:28:36.554Z,97414.70
2023-01-09T11:32:24.496Z,97414.49
2023-01-09T11:36:26.908Z,97407.57
2023-01-09T11:40:17.543Z,97407.36
2023-01-09T11:44:08.514Z,97412.26
2023-01-09T11:48:52.548Z,97409.80
2023-01-09T11:52:41.522Z,97404.52
2023-01-09T11:56:33.522Z,97405.31
2023-01-09T12:00:30.564Z,97403.48
2023-01-09T12:04:42.555Z,97405.48
2023-01-09T12:08:53.578Z,97396.55
2023-01-09T12:12:49.549Z,97389.63
2023-01-09T12:16:44.606Z,97397.56
2023-01-09T12:20:53.586Z,97381.88
2023-01-09T12:25:07.545Z,97388.78
2023-01-09T12:29:26.580Z,97387.55
2023-01-09T12:33:29.635Z,97388.34
2023-01-09T12:37:25.519Z,97385.84
2023-01-09T12:41:50.570Z,97399.88
2023-01-09T12:45:59.633Z,97395.11
2023-01-09T12:49:52.563Z,97395.11
2023-01-09T12:53:48.581Z,97398.55
2023-01-09T12:57:42.598Z,97396.73
2023-01-09T13:01:38.712Z,97393.88
2023-01-09T13:05:32.555Z,97394.53
2023-01-09T13:09:33.565Z,97395.56
2023-01-09T13:13:27.626Z,97389.69
2023-01-09T13:17:17.592Z,97382.22
2023-01-09T13:21:13.660Z,97387.73
2023-01-09T13:25:11.718Z,97384.91
2023-01-09T13:29:06.738Z,97380.44
2023-01-09T13:36:19.171Z,97374.19
2023-01-09T13:40:18.265Z,97375.84
2023-01-09T13:44:19.622Z,97384.98
2023-01-09T13:52:11.692Z,97393.12
2023-01-09T13:56:02.745Z,97403.50
2023-01-09T14:04:01.644Z,97419.56
2023-01-09T14:07:52.665Z,97421.80
2023-01-09T14:11:46.671Z,97428.86
2023-01-09T14:22:11.686Z,97441.45
2023-01-09T14:26:01.729Z,97448.78
2023-01-09T14:34:54.712Z,97469.08
2023-01-09T14:38:16.497Z,97462.37
2023-01-09T14:41:51.951Z,97467.02
2023-01-09T14:45:12.776Z,97460.52
2023-01-09T14:48:29.979Z,97459.69
2023-01-09T14:51:50.780Z,97452.38
2023-01-09T14:55:10.399Z,97461.48
2023-01-09T14:58:33.163Z,97460.03
2023-01-09T15:01:54.588Z,97470.33
2023-01-09T15:05:15.256Z,97475.41
2023-01-09T15:08:35.260Z,97481.31
2023-01-09T15:11:52.394Z,97481.52
2023-01-09T15:15:11.607Z,97472.11
2023-01-09T15:18:33.568Z,97477.95
2023-01-09T15:21:55.223Z,97479.70
2023-01-09T15:25:40.421Z,97490.89
2023-01-09T15:28:51.932Z,97498.60
2023-01-09T15:35:25.499Z,97502.21
2023-01-09T15:38:44.079Z,97508.49
2023-01-09T15:42:14.833Z,97510.50
2023-01-09T15:50:02.745Z,97516.98
2023-01-09T15:53:25.243Z,97533.64
2023-01-09T15:56:43.571Z,97541.55
2023-01-09T16:00:01.518Z,97547.43
2023-01-09T16:03:29.371Z,97555.55
2023-01-09T16:06:50.294Z,97556.34
2023-01-09T16:10:06.797Z,97560.82
2023-01-09T16:13:26.108Z,97559.58
2023-01-09T16:16:43.664Z,97569.50
2023-01-09T16:20:02.807Z,97578.97
2023-01-09T16:23:33.069Z,97573.90
2023-01-09T16:26:49.883Z,97578.84
2023-01-09T16:30:07.056Z,97585.64
2023-01-09T16:33:32.611Z,97571.28
2023-01-09T16:36:48.921Z,97575.59
2023-01-09T16:40:37.158Z,97575.22
2023-01-09T16:43:56.247Z,97579.30
2023-01-09T16:47:14.560Z,97578.09
2023-01-09T16:50:31.983Z,97582.17
2023-01-09T16:53:49.248Z,97581.34
2023-01-09T16:57:08.583Z,97588.09
2023-01-09T17:00:32.918Z,97583.41
2023-01-09T17:03:50.255Z,97591.95
2023-01-09T17:07:23.800Z,97596.23
2023-01-09T17:10:44.458Z,97603.15
2023-01-09T17:14:01.126Z,97606.39
2023-01-09T17:20:34.955Z,97604.39
2023-01-09T17:23:53.352Z,97608.47
2023-01-09T17:27:25.081Z,97610.30
2023-01-09T17:30:41.279Z,97624.10
2023-01-09T17:33:58.152Z,97628.38
2023-01-09T17:37:14.440Z,97632.86
2023-01-09T17:40:32.378Z,97632.59
2023-01-09T17:43:48.777Z,97641.34
2023-01-09T17:50:28.533Z,97643.79
2023-01-09T17:53:45.127Z,97648.70
2023-01-09T17:57:01.599Z,97654.98
2023-01-09T18:00:31.470Z,97651.71
2023-01-09T18:07:03.430Z,97653.55
2023-01-09T18:10:28.266Z,97644.80
2023-01-09T18:13:45.052Z,97650.67
2023-01-09T18:20:21.322Z,97662.23
2023-01-09T18:23:37.681Z,97661.80
2023-01-09T18:26:55.171Z,97663.80
2023-01-09T18:30:13.140Z,97671.52
2023-01-09T18:33:29.512Z,97670.52
2023-01-09T18:36:48.960Z,97682.35
2023-01-09T18:40:05.994Z,97679.71
2023-01-09T18:43:22.543Z,97684.79
2023-01-09T18:46:39.916Z,97682.95
2023-01-09T18:49:57.843Z,97685.80
2023-01-09T18:53:16.049Z,97693.08
2023-01-09T18:56:33.083Z,97701.19
2023-01-09T18:59:49.861Z,97698.75
2023-01-09T19:03:06.054Z,97696.11
2023-01-09T19:06:22.912Z,97698.75
2023-01-09T19:09:39.331Z,97699.95
2023-01-09T19:12:55.973Z,97693.23
2023-01-09T19:16:14.076Z,97690.59
2023-01-09T19:19:31.334Z,97697.07
2023-01-09T19:22:47.668Z,97695.43
2023-01-09T19:26:05.034Z,97703.70
2023-01-09T19:29:21.535Z,97697.55
2023-01-09T19:32:39.132Z,97694.35
2023-01-09T19:35:59.939Z,97704.55
2023-01-09T19:39:14.496Z,97701.07
2023-01-09T19:42:30.315Z,97706.19
2023-01-09T19:45:49.832Z,97704.71
2023-01-09T19:49:07.081Z,97709.74
2023-01-09T19:52:23.639Z,97706.11
2023-01-09T19:55:39.852Z,97708.11
2023-01-09T19:59:02.036Z,97714.41
2023-01-09T20:05:37.912Z,97711.19
2023-01-09T20:08:57.523Z,97724.22
2023-01-09T20:12:15.130Z,97732.30
2023-01-09T20:15:32.535Z,97728.41
2023-01-09T20:18:49.405Z,97737.77
2023-01-09T20:22:06.491Z,97736.13
2023-01-09T20:25:25.304Z,97726.58
2023-01-09T20:28:42.179Z,97730.86
2023-01-09T20:31:58.540Z,97719.70
2023-01-09T20:35:15.921Z,97724.77
2023-01-09T20:38:33.359Z,97721.70
2023-01-09T20:41:50.023Z,97719.25
2023-01-09T20:45:06.634Z,97725.08
2023-01-09T20:48:23.809Z,97730.11
2023-01-09T20:51:40.483Z,97728.02
2023-01-09T20:54:56.690Z,97731.50
2023-01-09T20:58:12.959Z,97724.83
2023-01-09T21:01:31.356Z,97726.83
2023-01-09T21:08:04.923Z,97736.43
2023-01-09T21:11:22.419Z,97739.07
2023-01-09T21:14:39.638Z,97740.70
2023-01-09T21:17:56.567Z,97743.16
2023-01-09T21:21:15.737Z,97746.63
2023-01-09T21:24:31.991Z,97752.26
2023-01-09T21:27:53.351Z,97760.72
2023-01-09T21:31:09.534Z,97766.28
2023-01-09T21:34:28.213Z,97770.75
2023-01-09T21:37:45.779Z,97769.30
2023-01-09T21:41:04.888Z,97778.02
2023-01-09T21:44:37.064Z,97778.02
2023-01-09T21:47:53.253Z,97783.30
2023-01-09T21:51:13.479Z,97782.10
2023-01-09T21:54:30.734Z,97789.40
2023-01-09T21:57:46.877Z,97790.75
2023-01-09T22:01:09.501Z,97799.42
2023-01-09T22:04:28.774Z,97803.59
2023-01-09T22:07:42.880Z,97804.59
2023-01-09T22:11:05.496Z,97796.33
2023-01-09T22:14:25.242Z,97799.13
2023-01-09T22:24:14.841Z,97797.22
2023-01-09T22:27:30.913Z,97799.05
2023-01-09T22:30:49.015Z,97802.14
2023-01-09T22:37:21.087Z,97807.59
2023-01-09T22:40:37.175Z,97804.69
2023-01-09T22:43:55.128Z,97801.74
2023-01-09T22:51:52.947Z,97802.46
2023-01-09T22:55:09.516Z,97807.73
2023-01-09T22:58:25.646Z,97810.73
2023-01-09T23:01:41.843Z,97812.34
2023-01-09T23:04:59.205Z,97813.71
2023-01-09T23:08:16.395Z,97818.91
2023-01-09T23:11:50.412Z,97819.72
2023-01-09T23:15:07.841Z,97816.53
2023-01-09T23:21:39.821Z,97816.81
2023-01-09T23:24:56.159Z,97812.10
2023-01-09T23:28:12.483Z,97821.45
2023-01-09T23:31:28.684Z,97821.80
2023-01-09T23:34:45.934Z,97819.69
2023-01-09T23:38:02.172Z,97818.08
2023-01-09T23:41:18.586Z,97824.34
2023-01-09T23:44:37.018Z,97828.43
2023-01-09T23:51:08.955Z,97832.70
2023-01-09T23:54:27.715Z,97833.88
2023-01-09T23:57:43.994Z,97841.66
